createdAt,value
2018-04-30T00:00:34.280Z,0
2018-04-30T00:01:35.079Z,0
2018-04-30T00:02:34.893Z,0
2018-04-30T00:03:35.120Z,0
2018-04-30T00:04:34.892Z,0
2018-04-30T00:05:34.664Z,0
2018-04-30T00:06:34.947Z,0
2018-04-30T00:07:35.044Z,0
2018-04-30T00:08:35.034Z,0
2018-04-30T00:09:35.018Z,0
2018-04-30T00:10:35.285Z,0
2018-04-30T00:11:35.076Z,0
2018-04-30T00:12:34.850Z,0
2018-04-30T00:13:35.383Z,0
2018-04-30T00:14:35.146Z,0
2018-04-30T00:15:35.202Z,0
2018-04-30T00:16:35.203Z,0
2018-04-30T00:17:35.215Z,0
2018-04-30T00:18:35.500Z,0
2018-04-30T00:19:35.262Z,0
2018-04-30T00:20:35.539Z,0
2018-04-30T00:21:35.317Z,0
2018-04-30T00:22:35.096Z,0
2018-04-30T00:23:35.735Z,0
2018-04-30T00:24:35.400Z,0
2018-04-30T00:25:35.673Z,0
2018-04-30T00:26:35.440Z,0
2018-04-30T00:27:35.460Z,0
2018-04-30T00:28:35.486Z,0
2018-04-30T00:29:35.256Z,0
2018-04-30T00:30:35.556Z,0
2018-04-30T00:31:35.840Z,0
2018-04-30T00:32:35.625Z,0
2018-04-30T00:33:35.509Z,0
2018-04-30T00:34:35.160Z,0
2018-04-30T00:35:35.951Z,0
2018-04-30T00:36:35.970Z,0
2018-04-30T00:37:35.743Z,0
2018-04-30T00:38:36.074Z,0
2018-04-30T00:39:36.095Z,0
2018-04-30T00:40:36.079Z,0
2018-04-30T00:41:35.595Z,0
2018-04-30T00:42:35.878Z,0
2018-04-30T00:43:36.156Z,0
2018-04-30T00:44:36.177Z,0
2018-04-30T00:45:36.192Z,0
2018-04-30T00:46:35.982Z,0
2018-04-30T00:47:36.260Z,0
2018-04-30T00:48:36.023Z,0
2018-04-30T00:49:36.307Z,0
2018-04-30T00:50:36.083Z,0
2018-04-30T00:51:36.350Z,0
2018-04-30T00:52:36.142Z,0
2018-04-30T00:53:36.208Z,0
2018-04-30T00:54:36.184Z,0
2018-04-30T00:55:36.217Z,0
2018-04-30T00:56:36.494Z,0
2018-04-30T00:57:36.250Z,0
2018-04-30T00:58:36.028Z,0
2018-04-30T00:59:36.055Z,0
2018-04-30T01:00:36.080Z,0
2018-04-30T01:01:36.100Z,0
2018-04-30T01:02:36.374Z,0
2018-04-30T01:03:37.161Z,0
2018-04-30T01:04:36.436Z,0
2018-04-30T01:05:36.712Z,0
2018-04-30T01:06:36.483Z,0
2018-04-30T01:07:36.257Z,0
2018-04-30T01:08:36.589Z,0
2018-04-30T01:09:36.567Z,0
2018-04-30T01:10:36.599Z,0
2018-04-30T01:11:36.592Z,0
2018-04-30T01:12:36.612Z,0
2018-04-30T01:13:36.389Z,0
2018-04-30T01:14:36.662Z,0
2018-04-30T01:15:36.692Z,0
2018-04-30T01:16:36.967Z,0
2018-04-30T01:17:36.739Z,0
2018-04-30T01:18:36.265Z,0
2018-04-30T01:19:37.040Z,0
2018-04-30T01:20:37.076Z,0
2018-04-30T01:21:37.125Z,0
2018-04-30T01:22:36.649Z,0
2018-04-30T01:23:37.233Z,0
2018-04-30T01:24:36.948Z,0
2018-04-30T01:25:36.732Z,0
2018-04-30T01:26:37.009Z,0
2018-04-30T01:27:37.069Z,0
2018-04-30T01:28:37.305Z,0
2018-04-30T01:29:37.080Z,0
2018-04-30T01:30:37.107Z,0
2018-04-30T01:31:37.099Z,0
2018-04-30T01:32:37.121Z,0
2018-04-30T01:33:36.647Z,0
2018-04-30T01:34:37.442Z,0
2018-04-30T01:35:37.457Z,0
2018-04-30T01:36:37.227Z,0
2018-04-30T01:37:36.996Z,0
2018-04-30T01:38:37.536Z,0
2018-04-30T01:39:37.615Z,0
2018-04-30T01:40:37.594Z,0
2018-04-30T01:41:37.368Z,0
2018-04-30T01:42:37.647Z,0
2018-04-30T01:43:37.670Z,0
2018-04-30T01:44:37.689Z,0
2018-04-30T01:45:37.728Z,0
2018-04-30T01:46:37.741Z,0
2018-04-30T01:47:37.519Z,0
2018-04-30T01:48:37.569Z,0
2018-04-30T01:49:37.596Z,0
2018-04-30T01:50:37.868Z,0
2018-04-30T01:51:37.890Z,0
2018-04-30T01:52:37.907Z,0
2018-04-30T01:53:37.949Z,0
2018-04-30T01:54:38.021Z,0
2018-04-30T01:55:37.992Z,0
2018-04-30T01:56:38.023Z,0
2018-04-30T01:57:37.803Z,0
2018-04-30T01:58:37.818Z,0
2018-04-30T01:59:37.587Z,0
2018-04-30T02:00:37.871Z,0
2018-04-30T02:01:37.888Z,0
2018-04-30T02:02:38.196Z,0
2018-04-30T02:03:38.197Z,0
2018-04-30T02:04:38.280Z,0
2018-04-30T02:05:37.742Z,0
2018-04-30T02:06:38.020Z,0
2018-04-30T02:07:37.864Z,0
2018-04-30T02:08:38.328Z,0
2018-04-30T02:09:37.842Z,0
2018-04-30T02:10:38.121Z,0
2018-04-30T02:11:38.400Z,0
2018-04-30T02:12:38.543Z,0
2018-04-30T02:13:37.940Z,0
2018-04-30T02:14:38.035Z,0
2018-04-30T02:15:37.995Z,0
2018-04-30T02:16:38.523Z,0
2018-04-30T02:17:38.557Z,0
2018-04-30T02:18:38.314Z,0
2018-04-30T02:19:38.344Z,0
2018-04-30T02:20:38.671Z,0
2018-04-30T02:21:38.141Z,0
2018-04-30T02:22:38.163Z,0
2018-04-30T02:23:38.441Z,0
2018-04-30T02:24:38.457Z,0
2018-04-30T02:25:38.745Z,0
2018-04-30T02:26:38.771Z,0
2018-04-30T02:27:38.824Z,0
2018-04-30T02:28:38.323Z,0
2018-04-30T02:29:38.842Z,0
2018-04-30T02:30:38.872Z,0
2018-04-30T02:31:38.652Z,0
2018-04-30T02:32:38.691Z,0
2018-04-30T02:33:39.020Z,0
2018-04-30T02:34:38.971Z,0
2018-04-30T02:35:39.078Z,0
2018-04-30T02:36:38.527Z,0
2018-04-30T02:37:38.822Z,0
2018-04-30T02:38:38.570Z,0
2018-04-30T02:39:39.097Z,0
2018-04-30T02:40:38.871Z,0
2018-04-30T02:41:39.162Z,0
2018-04-30T02:42:39.190Z,0
2018-04-30T02:43:38.947Z,0
2018-04-30T02:44:39.232Z,0
2018-04-30T02:45:38.741Z,0
2018-04-30T02:46:39.292Z,0
2018-04-30T02:47:39.309Z,0
2018-04-30T02:48:39.078Z,0
2018-04-30T02:49:39.099Z,0
2018-04-30T02:50:38.925Z,0
2018-04-30T02:51:39.400Z,0
2018-04-30T02:52:39.420Z,0
2018-04-30T02:53:39.201Z,0
2018-04-30T02:54:38.970Z,0
2018-04-30T02:55:39.505Z,0
2018-04-30T02:56:39.537Z,0
2018-04-30T02:57:39.052Z,0
2018-04-30T02:58:39.628Z,0
2018-04-30T02:59:39.340Z,0
2018-04-30T03:00:39.472Z,0
2018-04-30T03:01:39.646Z,0
2018-04-30T03:02:39.413Z,0
2018-04-30T03:03:39.712Z,0
2018-04-30T03:04:39.477Z,0
2018-04-30T03:05:39.547Z,0
2018-04-30T03:06:39.774Z,0
2018-04-30T03:07:39.559Z,0
2018-04-30T03:08:39.606Z,0
2018-04-30T03:09:39.400Z,0
2018-04-30T03:10:39.699Z,0
2018-04-30T03:11:39.907Z,0
2018-04-30T03:12:39.425Z,0
2018-04-30T03:13:39.693Z,0
2018-04-30T03:14:39.999Z,0
2018-04-30T03:15:39.489Z,0
2018-04-30T03:16:40.022Z,0
2018-04-30T03:17:39.767Z,0
2018-04-30T03:18:39.791Z,0
2018-04-30T03:19:39.568Z,0
2018-04-30T03:20:39.898Z,0
2018-04-30T03:21:40.121Z,0
2018-04-30T03:22:40.221Z,0
2018-04-30T03:23:40.179Z,0
2018-04-30T03:24:39.941Z,0
2018-04-30T03:25:39.983Z,0
2018-04-30T03:26:40.003Z,0
2018-04-30T03:27:40.288Z,0
2018-04-30T03:28:39.549Z,0
2018-04-30T03:29:39.839Z,0
2018-04-30T03:30:40.358Z,0
2018-04-30T03:31:40.382Z,0
2018-04-30T03:32:40.227Z,0
2018-04-30T03:33:40.437Z,0
2018-04-30T03:34:40.202Z,0
2018-04-30T03:35:40.534Z,0
2018-04-30T03:36:40.251Z,0
2018-04-30T03:37:40.020Z,0
2018-04-30T03:38:40.298Z,0
2018-04-30T03:39:40.327Z,0
2018-04-30T03:40:40.600Z,0
2018-04-30T03:41:40.703Z,0
2018-04-30T03:42:40.648Z,0
2018-04-30T03:43:40.687Z,0
2018-04-30T03:44:40.441Z,0
2018-04-30T03:45:40.709Z,0
2018-04-30T03:46:40.752Z,0
2018-04-30T03:47:40.514Z,0
2018-04-30T03:48:40.806Z,0
2018-04-30T03:49:41.012Z,0
2018-04-30T03:50:40.888Z,0
2018-04-30T03:51:40.344Z,0
2018-04-30T03:52:40.369Z,0
2018-04-30T03:53:40.911Z,0
2018-04-30T03:54:40.935Z,0
2018-04-30T03:55:40.698Z,0
2018-04-30T03:56:40.461Z,0
2018-04-30T03:57:40.486Z,0
2018-04-30T03:58:41.022Z,0
2018-04-30T03:59:40.793Z,0
2018-04-30T04:00:40.805Z,0
2018-04-30T04:01:41.082Z,0
2018-04-30T04:02:40.862Z,0
2018-04-30T04:03:40.899Z,0
2018-04-30T04:04:40.651Z,0
2018-04-30T04:05:40.670Z,0
2018-04-30T04:06:40.492Z,0
2018-04-30T04:07:41.222Z,0
2018-04-30T04:08:40.744Z,0
2018-04-30T04:09:41.018Z,0
2018-04-30T04:10:41.305Z,0
2018-04-30T04:11:40.811Z,0
2018-04-30T04:12:41.250Z,0
2018-04-30T04:13:41.111Z,0
2018-04-30T04:14:41.142Z,0
2018-04-30T04:15:41.422Z,0
2018-04-30T04:16:41.180Z,0
2018-04-30T04:17:41.214Z,0
2018-04-30T04:18:41.470Z,0
2018-04-30T04:19:41.248Z,0
2018-04-30T04:20:41.254Z,0
2018-04-30T04:21:41.585Z,0
2018-04-30T04:22:41.316Z,0
2018-04-30T04:23:41.578Z,0
2018-04-30T04:24:41.622Z,0
2018-04-30T04:25:41.635Z,0
2018-04-30T04:26:40.919Z,0
2018-04-30T04:27:41.689Z,0
2018-04-30T04:28:41.703Z,0
2018-04-30T04:29:41.238Z,0
2018-04-30T04:30:41.502Z,0
2018-04-30T04:31:41.770Z,0
2018-04-30T04:32:41.295Z,0
2018-04-30T04:33:41.563Z,0
2018-04-30T04:34:41.843Z,0
2018-04-30T04:35:41.863Z,0
2018-04-30T04:36:41.934Z,0
2018-04-30T04:37:41.397Z,0
2018-04-30T04:38:41.921Z,0
2018-04-30T04:39:41.952Z,0
2018-04-30T04:40:41.720Z,0
2018-04-30T04:41:42.228Z,5
2018-04-30T04:42:42.025Z,5
2018-04-30T04:43:41.785Z,5
2018-04-30T04:44:41.552Z,5
2018-04-30T04:45:41.828Z,5
2018-04-30T04:46:42.111Z,5
2018-04-30T04:47:42.127Z,5
2018-04-30T04:48:42.154Z,5
2018-04-30T04:49:42.165Z,5
2018-04-30T04:50:42.192Z,10
2018-04-30T04:51:42.260Z,10
2018-04-30T04:52:42.257Z,10
2018-04-30T04:53:42.223Z,10
2018-04-30T04:54:42.244Z,10
2018-04-30T04:55:42.020Z,10
2018-04-30T04:56:42.299Z,10
2018-04-30T04:57:42.048Z,15
2018-04-30T04:58:42.074Z,15
2018-04-30T04:59:41.865Z,15
2018-04-30T05:00:42.115Z,15
2018-04-30T05:01:41.892Z,15
2018-04-30T05:02:42.439Z,15
2018-04-30T05:03:41.960Z,15
2018-04-30T05:04:42.479Z,15
2018-04-30T05:05:42.263Z,15
2018-04-30T05:06:42.323Z,15
2018-04-30T05:07:42.538Z,15
2018-04-30T05:08:42.561Z,20
2018-04-30T05:09:42.583Z,20
2018-04-30T05:10:42.387Z,20
2018-04-30T05:11:42.384Z,20
2018-04-30T05:12:42.681Z,20
2018-04-30T05:13:42.155Z,20
2018-04-30T05:14:42.435Z,20
2018-04-30T05:15:42.710Z,20
2018-04-30T05:16:42.482Z,25
2018-04-30T05:17:42.277Z,25
2018-04-30T05:18:42.527Z,25
2018-04-30T05:19:42.793Z,25
2018-04-30T05:20:42.813Z,25
2018-04-30T05:21:42.621Z,25
2018-04-30T05:22:42.845Z,25
2018-04-30T05:23:42.611Z,25
2018-04-30T05:24:42.642Z,25
2018-04-30T05:25:42.919Z,30
2018-04-30T05:26:42.428Z,30
2018-04-30T05:27:42.465Z,35
2018-04-30T05:28:42.973Z,40
2018-04-30T05:29:42.977Z,40
2018-04-30T05:30:42.743Z,40
2018-04-30T05:31:42.765Z,45
2018-04-30T05:32:42.792Z,45
2018-04-30T05:33:42.802Z,45
2018-04-30T05:34:42.816Z,50
2018-04-30T05:35:42.588Z,55
2018-04-30T05:36:42.916Z,55
2018-04-30T05:37:42.387Z,55
2018-04-30T05:38:43.192Z,50
2018-04-30T05:39:42.940Z,45
2018-04-30T05:40:42.963Z,40
2018-04-30T05:41:42.735Z,40
2018-04-30T05:42:43.260Z,40
2018-04-30T05:43:43.024Z,35
2018-04-30T05:44:42.789Z,35
2018-04-30T05:45:42.815Z,30
2018-04-30T05:46:43.101Z,30
2018-04-30T05:47:43.379Z,30
2018-04-30T05:48:43.388Z,30
2018-04-30T05:49:43.457Z,30
2018-04-30T05:50:42.935Z,35
2018-04-30T05:51:43.292Z,35
2018-04-30T05:52:43.223Z,35
2018-04-30T05:53:43.244Z,35
2018-04-30T05:54:43.011Z,35
2018-04-30T05:55:43.285Z,40
2018-04-30T05:56:43.299Z,40
2018-04-30T05:57:43.573Z,40
2018-04-30T05:58:43.604Z,40
2018-04-30T05:59:43.355Z,45
2018-04-30T06:00:43.851Z,50
2018-04-30T06:01:43.407Z,50
2018-04-30T06:02:43.416Z,55
2018-04-30T06:03:43.191Z,55
2018-04-30T06:04:42.947Z,55
2018-04-30T06:05:43.737Z,50
2018-04-30T06:06:43.584Z,45
2018-04-30T06:07:43.771Z,45
2018-04-30T06:08:43.814Z,40
2018-04-30T06:09:43.554Z,40
2018-04-30T06:10:43.585Z,40
2018-04-30T06:11:43.853Z,40
2018-04-30T06:12:43.860Z,40
2018-04-30T06:13:43.898Z,40
2018-04-30T06:14:43.669Z,45
2018-04-30T06:15:43.934Z,45
2018-04-30T06:16:43.687Z,45
2018-04-30T06:17:43.795Z,45
2018-04-30T06:18:43.722Z,45
2018-04-30T06:19:43.746Z,45
2018-04-30T06:20:44.009Z,45
2018-04-30T06:21:43.583Z,45
2018-04-30T06:22:43.295Z,45
2018-04-30T06:23:43.837Z,50
2018-04-30T06:24:43.612Z,55
2018-04-30T06:25:43.874Z,60
2018-04-30T06:26:43.910Z,60
2018-04-30T06:27:43.916Z,55
2018-04-30T06:28:43.945Z,50
2018-04-30T06:29:44.206Z,40
2018-04-30T06:30:43.972Z,35
2018-04-30T06:31:44.266Z,35
2018-04-30T06:32:43.763Z,35
2018-04-30T06:33:44.290Z,35
2018-04-30T06:34:43.812Z,40
2018-04-30T06:35:44.442Z,40
2018-04-30T06:36:44.134Z,45
2018-04-30T06:37:43.846Z,55
2018-04-30T06:38:44.120Z,60
2018-04-30T06:39:44.415Z,70
2018-04-30T06:40:43.921Z,70
2018-04-30T06:41:43.990Z,60
2018-04-30T06:42:44.472Z,50
2018-04-30T06:43:44.257Z,45
2018-04-30T06:44:44.505Z,45
2018-04-30T06:45:44.538Z,50
2018-04-30T06:46:44.545Z,60
2018-04-30T06:47:44.878Z,65
2018-04-30T06:48:44.332Z,70
2018-04-30T06:49:44.602Z,70
2018-04-30T06:50:44.619Z,65
2018-04-30T06:51:44.185Z,65
2018-04-30T06:52:44.400Z,70
2018-04-30T06:53:44.302Z,80
2018-04-30T06:54:44.206Z,80
2018-04-30T06:55:44.221Z,80
2018-04-30T06:56:44.779Z,80
2018-04-30T06:57:44.756Z,75
2018-04-30T06:58:44.752Z,75
2018-04-30T06:59:44.286Z,70
2018-04-30T07:00:44.857Z,75
2018-04-30T07:01:44.581Z,75
2018-04-30T07:02:44.844Z,80
2018-04-30T07:03:44.869Z,90
2018-04-30T07:04:44.892Z,110
2018-04-30T07:05:44.402Z,125
2018-04-30T07:06:44.754Z,135
2018-04-30T07:07:44.446Z,140
2018-04-30T07:08:44.708Z,135
2018-04-30T07:09:46.112Z,125
2018-04-30T07:10:44.758Z,115
2018-04-30T07:11:45.046Z,110
2018-04-30T07:12:44.565Z,115
2018-04-30T07:13:44.815Z,125
2018-04-30T07:14:44.578Z,140
2018-04-30T07:15:44.613Z,150
2018-04-30T07:16:45.124Z,145
2018-04-30T07:17:45.157Z,130
2018-04-30T07:18:45.166Z,125
2018-04-30T07:19:45.188Z,120
2018-04-30T07:20:45.203Z,125
2018-04-30T07:21:45.027Z,135
2018-04-30T07:22:44.991Z,150
2018-04-30T07:23:45.267Z,165
2018-04-30T07:24:45.041Z,190
2018-04-30T07:25:45.304Z,220
2018-04-30T07:26:45.074Z,230
2018-04-30T07:27:45.215Z,235
2018-04-30T07:28:45.364Z,220
2018-04-30T07:29:45.389Z,210
2018-04-30T07:30:45.171Z,215
2018-04-30T07:31:45.197Z,220
2018-04-30T07:32:45.196Z,245
2018-04-30T07:33:45.225Z,265
2018-04-30T07:34:45.487Z,285
2018-04-30T07:35:45.589Z,290
2018-04-30T07:36:45.332Z,285
2018-04-30T07:37:45.055Z,280
2018-04-30T07:38:45.577Z,275
2018-04-30T07:39:45.344Z,275
2018-04-30T07:40:45.375Z,285
2018-04-30T07:41:45.382Z,285
2018-04-30T07:42:45.665Z,275
2018-04-30T07:43:45.689Z,275
2018-04-30T07:44:45.438Z,275
2018-04-30T07:45:45.460Z,275
2018-04-30T07:46:45.242Z,265
2018-04-30T07:47:45.274Z,255
2018-04-30T07:48:45.564Z,270
2018-04-30T07:49:45.550Z,275
2018-04-30T07:50:45.565Z,275
2018-04-30T07:51:45.621Z,310
2018-04-30T07:52:45.601Z,270
2018-04-30T07:53:45.634Z,245
2018-04-30T07:54:46.114Z,225
2018-04-30T07:55:45.932Z,220
2018-04-30T07:56:45.742Z,225
2018-04-30T07:57:45.995Z,255
2018-04-30T07:58:46.006Z,280
2018-04-30T07:59:45.761Z,280
2018-04-30T08:00:46.049Z,285
2018-04-30T08:01:46.069Z,310
2018-04-30T08:02:45.828Z,355
2018-04-30T08:03:45.847Z,375
2018-04-30T08:04:46.135Z,375
2018-04-30T08:05:45.897Z,380
2018-04-30T08:06:46.262Z,385
2018-04-30T08:07:46.190Z,385
2018-04-30T08:08:45.963Z,375
2018-04-30T08:09:46.241Z,395
2018-04-30T08:10:46.260Z,390
2018-04-30T08:11:45.781Z,390
2018-04-30T08:12:46.308Z,405
2018-04-30T08:13:46.077Z,410
2018-04-30T08:14:46.179Z,395
2018-04-30T08:15:46.124Z,405
2018-04-30T08:16:45.891Z,495
2018-04-30T08:17:46.432Z,380
2018-04-30T08:18:46.192Z,365
2018-04-30T08:19:46.216Z,405
2018-04-30T08:20:46.253Z,375
2018-04-30T08:21:46.432Z,355
2018-04-30T08:22:46.547Z,340
2018-04-30T08:23:45.806Z,275
2018-04-30T08:24:46.079Z,330
2018-04-30T08:25:46.349Z,240
2018-04-30T08:26:46.386Z,310
2018-04-30T08:27:46.400Z,300
2018-04-30T08:28:46.692Z,300
2018-04-30T08:29:46.451Z,295
2018-04-30T08:30:46.725Z,285
2018-04-30T08:31:46.246Z,300
2018-04-30T08:32:46.770Z,295
2018-04-30T08:33:46.807Z,175
2018-04-30T08:34:46.812Z,280
2018-04-30T08:35:46.886Z,195
2018-04-30T08:36:47.000Z,310
2018-04-30T08:37:46.385Z,310
2018-04-30T08:38:46.687Z,315
2018-04-30T08:39:46.931Z,320
2018-04-30T08:40:46.955Z,320
2018-04-30T08:41:46.773Z,320
2018-04-30T08:42:46.989Z,335
2018-04-30T08:43:46.755Z,350
2018-04-30T08:44:46.527Z,360
2018-04-30T08:45:46.567Z,360
2018-04-30T08:46:47.093Z,370
2018-04-30T08:47:46.856Z,225
2018-04-30T08:48:46.361Z,355
2018-04-30T08:49:46.647Z,360
2018-04-30T08:50:46.925Z,320
2018-04-30T08:51:46.485Z,365
2018-04-30T08:52:46.724Z,360
2018-04-30T08:53:47.244Z,355
2018-04-30T08:54:47.026Z,350
2018-04-30T08:55:47.375Z,330
2018-04-30T08:56:47.331Z,335
2018-04-30T08:57:47.350Z,335
2018-04-30T08:58:47.367Z,340
2018-04-30T08:59:47.379Z,340
2018-04-30T09:00:47.503Z,340
2018-04-30T09:01:47.183Z,335
2018-04-30T09:02:47.200Z,335
2018-04-30T09:03:47.477Z,340
2018-04-30T09:04:46.739Z,345
2018-04-30T09:05:47.269Z,255
2018-04-30T09:06:47.357Z,350
2018-04-30T09:07:47.057Z,350
2018-04-30T09:08:47.335Z,335
2018-04-30T09:09:47.021Z,345
2018-04-30T09:10:47.762Z,345
2018-04-30T09:11:47.676Z,355
2018-04-30T09:12:47.429Z,365
2018-04-30T09:13:47.455Z,375
2018-04-30T09:14:47.745Z,385
2018-04-30T09:15:47.248Z,385
2018-04-30T09:16:47.625Z,375
2018-04-30T09:17:47.549Z,360
2018-04-30T09:18:47.825Z,365
2018-04-30T09:19:47.588Z,365
2018-04-30T09:20:47.616Z,365
2018-04-30T09:21:47.956Z,370
2018-04-30T09:22:47.670Z,365
2018-04-30T09:23:48.067Z,365
2018-04-30T09:24:48.024Z,365
2018-04-30T09:25:47.479Z,370
2018-04-30T09:26:48.029Z,425
2018-04-30T09:27:47.532Z,490
2018-04-30T09:28:47.805Z,505
2018-04-30T09:29:48.076Z,545
2018-04-30T09:30:47.849Z,565
2018-04-30T09:31:47.869Z,590
2018-04-30T09:32:48.156Z,620
2018-04-30T09:33:48.154Z,625
2018-04-30T09:34:47.425Z,635
2018-04-30T09:35:47.712Z,645
2018-04-30T09:36:48.285Z,390
2018-04-30T09:37:48.280Z,380
2018-04-30T09:38:48.286Z,530
2018-04-30T09:39:48.322Z,355
2018-04-30T09:40:48.329Z,345
2018-04-30T09:41:48.377Z,360
2018-04-30T09:42:48.375Z,360
2018-04-30T09:43:48.402Z,465
2018-04-30T09:44:48.424Z,485
2018-04-30T09:45:48.476Z,460
2018-04-30T09:46:48.479Z,595
2018-04-30T09:47:48.502Z,545
2018-04-30T09:48:48.273Z,585
2018-04-30T09:49:48.054Z,595
2018-04-30T09:50:48.597Z,595
2018-04-30T09:51:48.406Z,590
2018-04-30T09:52:48.160Z,580
2018-04-30T09:53:48.700Z,590
2018-04-30T09:54:48.211Z,590
2018-04-30T09:55:48.748Z,590
2018-04-30T09:56:48.528Z,480
2018-04-30T09:57:48.979Z,620
2018-04-30T09:58:48.836Z,485
2018-04-30T09:59:48.862Z,630
2018-04-30T10:00:48.385Z,630
2018-04-30T10:01:48.915Z,645
2018-04-30T10:02:48.421Z,470
2018-04-30T10:03:48.463Z,395
2018-04-30T10:04:48.747Z,380
2018-04-30T10:05:48.791Z,380
2018-04-30T10:06:48.600Z,385
2018-04-30T10:07:48.829Z,385
2018-04-30T10:08:49.111Z,605
2018-04-30T10:09:48.904Z,635
2018-04-30T10:10:48.908Z,690
2018-04-30T10:11:48.744Z,700
2018-04-30T10:12:48.717Z,695
2018-04-30T10:13:48.993Z,695
2018-04-30T10:14:49.293Z,690
2018-04-30T10:15:49.048Z,695
2018-04-30T10:16:49.089Z,720
2018-04-30T10:17:49.340Z,745
2018-04-30T10:18:49.391Z,765
2018-04-30T10:19:49.418Z,780
2018-04-30T10:20:49.197Z,780
2018-04-30T10:21:49.239Z,755
2018-04-30T10:22:49.252Z,485
2018-04-30T10:23:49.734Z,480
2018-04-30T10:24:48.820Z,500
2018-04-30T10:25:49.348Z,550
2018-04-30T10:26:49.520Z,725
2018-04-30T10:27:49.665Z,540
2018-04-30T10:28:49.824Z,550
2018-04-30T10:29:49.483Z,580
2018-04-30T10:30:49.761Z,850
2018-04-30T10:31:49.886Z,720
2018-04-30T10:32:49.814Z,870
2018-04-30T10:33:49.919Z,750
2018-04-30T10:34:49.617Z,845
2018-04-30T10:35:49.912Z,580
2018-04-30T10:36:50.043Z,590
2018-04-30T10:37:50.272Z,605
2018-04-30T10:38:49.735Z,715
2018-04-30T10:39:49.779Z,565
2018-04-30T10:40:49.809Z,585
2018-04-30T10:41:49.882Z,605
2018-04-30T10:42:50.109Z,545
2018-04-30T10:43:49.884Z,520
2018-04-30T10:44:50.183Z,525
2018-04-30T10:45:50.195Z,825
2018-04-30T10:46:50.274Z,780
2018-04-30T10:47:50.022Z,860
2018-04-30T10:48:50.030Z,715
2018-04-30T10:49:50.320Z,875
2018-04-30T10:50:50.092Z,870
2018-04-30T10:51:50.245Z,875
2018-04-30T10:52:50.240Z,865
2018-04-30T10:53:50.435Z,790
2018-04-30T10:54:49.957Z,595
2018-04-30T10:55:50.006Z,500
2018-04-30T10:56:50.308Z,455
2018-04-30T10:57:50.307Z,425
2018-04-30T10:58:50.348Z,415
2018-04-30T10:59:50.109Z,425
2018-04-30T11:00:50.145Z,410
2018-04-30T11:01:50.176Z,390
2018-04-30T11:02:50.996Z,385
2018-04-30T11:03:50.480Z,395
2018-04-30T11:04:50.252Z,405
2018-04-30T11:05:50.806Z,425
2018-04-30T11:06:50.892Z,460
2018-04-30T11:07:50.865Z,485
2018-04-30T11:08:50.634Z,485
2018-04-30T11:09:50.919Z,485
2018-04-30T11:10:50.189Z,480
2018-04-30T11:11:50.706Z,460
2018-04-30T11:12:50.482Z,465
2018-04-30T11:13:51.013Z,485
2018-04-30T11:14:51.051Z,505
2018-04-30T11:15:51.067Z,525
2018-04-30T11:16:50.850Z,520
2018-04-30T11:17:51.132Z,510
2018-04-30T11:18:51.164Z,520
2018-04-30T11:19:51.198Z,520
2018-04-30T11:20:50.705Z,530
2018-04-30T11:21:51.041Z,625
2018-04-30T11:22:50.852Z,590
2018-04-30T11:23:50.811Z,595
2018-04-30T11:24:50.583Z,780
2018-04-30T11:25:51.361Z,860
2018-04-30T11:26:51.399Z,850
2018-04-30T11:27:51.404Z,865
2018-04-30T11:28:51.461Z,800
2018-04-30T11:29:50.971Z,495
2018-04-30T11:30:51.002Z,465
2018-04-30T11:31:51.296Z,440
2018-04-30T11:32:51.072Z,440
2018-04-30T11:33:51.380Z,450
2018-04-30T11:34:51.137Z,455
2018-04-30T11:35:51.429Z,460
2018-04-30T11:36:51.801Z,490
2018-04-30T11:37:51.485Z,540
2018-04-30T11:38:51.262Z,660
2018-04-30T11:39:52.885Z,1155
2018-04-30T11:40:51.882Z,1305
2018-04-30T11:41:51.089Z,1225
2018-04-30T11:42:51.623Z,1255
2018-04-30T11:43:51.395Z,1275
2018-04-30T11:44:51.166Z,860
2018-04-30T11:45:51.717Z,1180
2018-04-30T11:46:52.020Z,1170
2018-04-30T11:47:52.021Z,1140
2018-04-30T11:48:52.933Z,1105
2018-04-30T11:49:51.577Z,1140
2018-04-30T11:50:51.866Z,1165
2018-04-30T11:51:51.963Z,1115
2018-04-30T11:52:51.930Z,1030
2018-04-30T11:53:52.224Z,985
2018-04-30T11:54:51.729Z,980
2018-04-30T11:55:52.290Z,1020
2018-04-30T11:56:52.083Z,1070
2018-04-30T11:57:52.458Z,1095
2018-04-30T11:58:53.222Z,1145
2018-04-30T11:59:52.441Z,1220
2018-04-30T12:00:52.215Z,850
2018-04-30T12:01:52.305Z,1040
2018-04-30T12:02:52.291Z,1260
2018-04-30T12:03:52.054Z,1130
2018-04-30T12:04:52.690Z,435
2018-04-30T12:05:52.631Z,435
2018-04-30T12:06:52.186Z,475
2018-04-30T12:07:53.650Z,1365
2018-04-30T12:08:52.232Z,785
2018-04-30T12:09:51.978Z,1435
2018-04-30T12:10:52.804Z,1320
2018-04-30T12:11:58.846Z,1645
2018-04-30T12:12:52.619Z,1795
2018-04-30T12:13:52.893Z,1175
2018-04-30T12:14:52.691Z,1200
2018-04-30T12:15:53.149Z,735
2018-04-30T12:16:54.915Z,725
2018-04-30T12:17:53.120Z,585
2018-04-30T12:18:52.282Z,495
2018-04-30T12:19:52.839Z,470
2018-04-30T12:20:53.127Z,485
2018-04-30T12:21:52.984Z,480
2018-04-30T12:22:53.215Z,465
2018-04-30T12:23:52.712Z,435
2018-04-30T12:24:52.905Z,415
2018-04-30T12:25:54.177Z,415
2018-04-30T12:26:52.892Z,415
2018-04-30T12:27:53.095Z,415
2018-04-30T12:28:53.157Z,400
2018-04-30T12:29:53.492Z,395
2018-04-30T12:30:53.447Z,390
2018-04-30T12:31:52.984Z,435
2018-04-30T12:32:53.261Z,470
2018-04-30T12:33:53.160Z,700
2018-04-30T12:34:53.717Z,2120
2018-04-30T12:35:53.065Z,2275
2018-04-30T12:36:53.450Z,2230
2018-04-30T12:37:53.688Z,2255
2018-04-30T12:38:53.427Z,2355
2018-04-30T12:39:53.457Z,2315
2018-04-30T12:40:53.492Z,2270
2018-04-30T12:41:53.520Z,2295
2018-04-30T12:42:53.567Z,2355
2018-04-30T12:43:54.736Z,2410
2018-04-30T12:44:53.624Z,2390
2018-04-30T12:45:53.632Z,2480
2018-04-30T12:46:53.952Z,1015
2018-04-30T12:47:53.719Z,645
2018-04-30T12:48:53.738Z,1880
2018-04-30T12:49:54.451Z,2110
2018-04-30T12:50:54.694Z,2225
2018-04-30T12:51:54.148Z,2260
2018-04-30T12:52:55.293Z,2180
2018-04-30T12:53:54.715Z,2380
2018-04-30T12:54:54.222Z,2280
2018-04-30T12:55:54.252Z,2270
2018-04-30T12:56:54.273Z,2320
2018-04-30T12:57:54.305Z,2445
2018-04-30T12:58:54.080Z,2390
2018-04-30T12:59:54.104Z,2340
2018-04-30T13:00:54.541Z,520
2018-04-30T13:01:53.937Z,485
2018-04-30T13:02:54.209Z,575
2018-04-30T13:03:54.494Z,700
2018-04-30T13:04:54.273Z,2030
2018-04-30T13:05:54.284Z,2210
2018-04-30T13:06:54.651Z,2235
2018-04-30T13:07:54.619Z,2285
2018-04-30T13:08:54.614Z,2330
2018-04-30T13:09:55.808Z,1110
2018-04-30T13:10:54.472Z,1580
2018-04-30T13:11:54.751Z,935
2018-04-30T13:12:54.550Z,615
2018-04-30T13:13:54.310Z,610
2018-04-30T13:14:54.612Z,650
2018-04-30T13:15:54.910Z,665
2018-04-30T13:16:54.653Z,875
2018-04-30T13:17:54.944Z,2390
2018-04-30T13:18:54.977Z,2525
2018-04-30T13:19:54.763Z,2570
2018-04-30T13:20:54.532Z,2645
2018-04-30T13:21:54.874Z,2690
2018-04-30T13:22:54.870Z,2775
2018-04-30T13:23:54.886Z,2785
2018-04-30T13:24:54.665Z,2695
2018-04-30T13:25:54.958Z,2740
2018-04-30T13:26:55.245Z,2740
2018-04-30T13:27:55.379Z,2585
2018-04-30T13:28:55.071Z,2585
2018-04-30T13:29:55.090Z,2545
2018-04-30T13:30:55.388Z,2610
2018-04-30T13:31:55.176Z,2620
2018-04-30T13:32:54.935Z,2505
2018-04-30T13:33:55.483Z,2585
2018-04-30T13:34:55.260Z,2415
2018-04-30T13:35:55.561Z,2395
2018-04-30T13:36:55.646Z,2560
2018-04-30T13:37:55.372Z,2385
2018-04-30T13:38:55.650Z,2585
2018-04-30T13:39:55.686Z,2605
2018-04-30T13:40:55.463Z,2715
2018-04-30T13:41:55.506Z,2840
2018-04-30T13:42:55.794Z,1105
2018-04-30T13:43:55.739Z,590
2018-04-30T13:44:55.611Z,645
2018-04-30T13:45:55.895Z,655
2018-04-30T13:46:55.957Z,755
2018-04-30T13:47:55.737Z,875
2018-04-30T13:48:56.028Z,530
2018-04-30T13:49:55.808Z,535
2018-04-30T13:50:56.133Z,1180
2018-04-30T13:51:55.679Z,670
2018-04-30T13:52:56.176Z,2460
2018-04-30T13:53:55.944Z,2825
2018-04-30T13:54:55.979Z,2840
2018-04-30T13:55:56.275Z,2900
2018-04-30T13:56:56.374Z,2870
2018-04-30T13:57:56.355Z,2800
2018-04-30T13:58:56.120Z,2745
2018-04-30T13:59:56.148Z,2670
2018-04-30T14:00:56.439Z,2715
2018-04-30T14:01:56.850Z,2515
2018-04-30T14:02:56.509Z,2380
2018-04-30T14:03:55.784Z,2545
2018-04-30T14:04:56.378Z,2765
2018-04-30T14:05:56.614Z,2770
2018-04-30T14:06:56.704Z,2725
2018-04-30T14:07:56.679Z,2780